sensor_id;sensor_type;location;lat;lon;timestamp;pressure;altitude;pressure_sealevel;temperature;humidity
54439;BME280;40347;53.848;27.498;2023-04-19T00:01:01;1016.1;;;10.7;58.8
54439;BME280;40347;53.848;27.498;2023-04-19T00:06:09;1016.1;;;10.6;59.1
54439;BME280;40347;53.848;27.498;2023-04-19T00:11:13;1016.1;;;10.6;59.3
54439;BME280;40347;53.848;27.498;2023-04-19T00:16:19;1016;;;10.5;59.5
54439;BME280;40347;53.848;27.498;2023-04-19T00:21:14;1016;;;10.6;59.5
54439;BME280;40347;53.848;27.498;2023-04-19T00:26:13;1016;;;10.5;59.5
54439;BME280;40347;53.848;27.498;2023-04-19T00:31:01;1016;;;10.5;59.6
54439;BME280;40347;53.848;27.498;2023-04-19T00:36:23;1016;;;10.4;59.9
54439;BME280;40347;53.848;27.498;2023-04-19T00:41:01;1016;;;10.5;59.9
54439;BME280;40347;53.848;27.498;2023-04-19T00:46:13;1015.9;;;10.4;59.9
54439;BME280;40347;53.848;27.498;2023-04-19T00:51:13;1015.9;;;10.5;59.7
54439;BME280;40347;53.848;27.498;2023-04-19T00:56:09;1015.9;;;10.5;59.6
54439;BME280;40347;53.848;27.498;2023-04-19T01:01:13;1015.9;;;10.5;59.8
54439;BME280;40347;53.848;27.498;2023-04-19T01:06:01;1015.8;;;10.6;59.5
54439;BME280;40347;53.848;27.498;2023-04-19T01:11:01;1015.8;;;10.5;59.6
54439;BME280;40347;53.848;27.498;2023-04-19T01:16:24;1015.8;;;10.4;59.6
54439;BME280;40347;53.848;27.498;2023-04-19T01:21:01;1015.8;;;10.5;59.6
54439;BME280;40347;53.848;27.498;2023-04-19T01:26:13;1015.8;;;10.4;59.9
54439;BME280;40347;53.848;27.498;2023-04-19T01:31:01;1015.8;;;10.4;59.9
54439;BME280;40347;53.848;27.498;2023-04-19T01:36:02;1015.7;;;10.5;59.9
54439;BME280;40347;53.848;27.498;2023-04-19T01:41:23;1015.8;;;10.6;59.5
54439;BME280;40347;53.848;27.498;2023-04-19T01:46:25;1015.7;;;10.5;59.4
54439;BME280;40347;53.848;27.498;2023-04-19T01:51:01;1015.7;;;10.4;59.6
54439;BME280;40347;53.848;27.498;2023-04-19T01:56:29;1015.7;;;10.5;59.7
54439;BME280;40347;53.848;27.498;2023-04-19T02:01:13;1015.7;;;10.4;59.8
54439;BME280;40347;53.848;27.498;2023-04-19T02:06:13;1015.7;;;10.4;59.8
54439;BME280;40347;53.848;27.498;2023-04-19T02:11:10;1015.7;;;10.5;59.6
54439;BME280;40347;53.848;27.498;2023-04-19T02:16:02;1015.7;;;10.4;59.9
54439;BME280;40347;53.848;27.498;2023-04-19T02:21:01;1015.7;;;10.4;59.8
54439;BME280;40347;53.848;27.498;2023-04-19T02:26:01;1015.7;;;10.1;60.6
54439;BME280;40347;53.848;27.498;2023-04-19T02:31:23;1015.6;;;10.1;61.1
54439;BME280;40347;53.848;27.498;2023-04-19T02:36:22;1015.5;;;10.1;60.8
54439;BME280;40347;53.848;27.498;2023-04-19T02:41:02;1015.5;;;10.2;60.4
54439;BME280;40347;53.848;27.498;2023-04-19T02:46:47;1015.5;;;10.1;60.7
54439;BME280;40347;53.848;27.498;2023-04-19T02:51:02;1015.5;;;10.1;60.8
54439;BME280;40347;53.848;27.498;2023-04-19T02:56:24;1015.5;;;10.1;61
54439;BME280;40347;53.848;27.498;2023-04-19T03:01:01;1015.6;;;10.1;60.9
54439;BME280;40347;53.848;27.498;2023-04-19T03:06:02;1015.6;;;10;61.2
54439;BME280;40347;53.848;27.498;2023-04-19T03:11:02;1015.5;;;10;61.1
54439;BME280;40347;53.848;27.498;2023-04-19T03:16:17;1015.6;;;10.1;60.7
54439;BME280;40347;53.848;27.498;2023-04-19T03:21:24;1015.5;;;10.1;60.8
54439;BME280;40347;53.848;27.498;2023-04-19T03:26:01;1015.6;;;10.1;60.8
54439;BME280;40347;53.848;27.498;2023-04-19T03:31:14;1015.6;;;10;61
54439;BME280;40347;53.848;27.498;2023-04-19T03:36:08;1015.5;;;10.1;60.8
54439;BME280;40347;53.848;27.498;2023-04-19T03:41:17;1015.5;;;10;61
54439;BME280;40347;53.848;27.498;2023-04-19T03:46:01;1015.5;;;10;60.9
54439;BME280;40347;53.848;27.498;2023-04-19T03:51:14;1015.6;;;10;61.1
54439;BME280;40347;53.848;27.498;2023-04-19T03:56:02;1015.8;;;10.2;60.8
54439;BME280;40347;53.848;27.498;2023-04-19T04:01:07;1015.7;;;10.3;60.6
54439;BME280;40347;53.848;27.498;2023-04-19T04:06:08;1015.8;;;10.3;60.7
54439;BME280;40347;53.848;27.498;2023-04-19T04:11:22;1015.8;;;10.3;60.5
54439;BME280;40347;53.848;27.498;2023-04-19T04:16:02;1015.8;;;10.3;60.7
54439;BME280;40347;53.848;27.498;2023-04-19T04:21:02;1015.8;;;10.4;60.6
54439;BME280;40347;53.848;27.498;2023-04-19T04:26:02;1015.8;;;10.4;60.6
54439;BME280;40347;53.848;27.498;2023-04-19T04:31:02;1015.8;;;10.6;60.4
54439;BME280;40347;53.848;27.498;2023-04-19T04:36:14;1015.9;;;10.7;59.8
54439;BME280;40347;53.848;27.498;2023-04-19T04:41:16;1015.8;;;10.7;59.9
54439;BME280;40347;53.848;27.498;2023-04-19T04:46:10;1015.8;;;10.6;60.3
54439;BME280;40347;53.848;27.498;2023-04-19T04:51:22;1015.8;;;10.7;60.1
54439;BME280;40347;53.848;27.498;2023-04-19T04:56:02;1015.9;;;11;59.3
54439;BME280;40347;53.848;27.498;2023-04-19T05:01:02;1015.8;;;11.3;58.8
54439;BME280;40347;53.848;27.498;2023-04-19T05:06:02;1015.8;;;11.6;58
54439;BME280;40347;53.848;27.498;2023-04-19T05:11:14;1015.9;;;11.8;57.4
54439;BME280;40347;53.848;27.498;2023-04-19T05:16:30;1015.9;;;12;57.4
54439;BME280;40347;53.848;27.498;2023-04-19T05:21:02;1015.9;;;12.1;56.6
54439;BME280;40347;53.848;27.498;2023-04-19T05:26:02;1015.9;;;11.9;56.8
54439;BME280;40347;53.848;27.498;2023-04-19T05:31:24;1015.9;;;11.7;57.3
54439;BME280;40347;53.848;27.498;2023-04-19T05:36:12;1016;;;11.5;57.3
54439;BME280;40347;53.848;27.498;2023-04-19T05:41:18;1016;;;11.5;57.6
54439;BME280;40347;53.848;27.498;2023-04-19T05:46:14;1016;;;11.5;57.5
54439;BME280;40347;53.848;27.498;2023-04-19T05:51:22;1016.1;;;11.5;57.6
54439;BME280;40347;53.848;27.498;2023-04-19T05:56:36;1016.1;;;11.6;57
54439;BME280;40347;53.848;27.498;2023-04-19T06:01:02;1016.1;;;11.7;56.7
54439;BME280;40347;53.848;27.498;2023-04-19T06:06:08;1016.1;;;12.1;56.3
54439;BME280;40347;53.848;27.498;2023-04-19T06:11:20;1016.2;;;12.5;55.5
54439;BME280;40347;53.848;27.498;2023-04-19T06:16:02;1016.2;;;12.9;55.1
54439;BME280;40347;53.848;27.498;2023-04-19T06:21:02;1016.2;;;13.3;53.8
54439;BME280;40347;53.848;27.498;2023-04-19T06:26:20;1016.2;;;13.6;52.8
54439;BME280;40347;53.848;27.498;2023-04-19T06:31:44;1016.2;;;13.8;52.7
54439;BME280;40347;53.848;27.498;2023-04-19T06:36:20;1016.3;;;13.8;52.3
54439;BME280;40347;53.848;27.498;2023-04-19T06:41:14;1016.3;;;14;51.8
54439;BME280;40347;53.848;27.498;2023-04-19T06:46:34;1016.3;;;14.2;51.8
54439;BME280;40347;53.848;27.498;2023-04-19T06:51:02;1016.3;;;14.1;50.3
54439;BME280;40347;53.848;27.498;2023-04-19T06:56:10;1016.3;;;14.2;50.2
54439;BME280;40347;53.848;27.498;2023-04-19T07:01:14;1016.3;;;14.4;49.4
54439;BME280;40347;53.848;27.498;2023-04-19T07:06:20;1016.3;;;14.7;48.8
54439;BME280;40347;53.848;27.498;2023-04-19T07:11:22;1016.4;;;14.6;48
54439;BME280;40347;53.848;27.498;2023-04-19T07:16:14;1016.4;;;14.5;48.2
54439;BME280;40347;53.848;27.498;2023-04-19T07:21:02;1016.4;;;14.6;48.5
54439;BME280;40347;53.848;27.498;2023-04-19T07:26:14;1016.4;;;14.9;47.6
54439;BME280;40347;53.848;27.498;2023-04-19T07:31:22;1016.4;;;15.1;46.6
54439;BME280;40347;53.848;27.498;2023-04-19T07:36:02;1016.4;;;15.2;46.1
54439;BME280;40347;53.848;27.498;2023-04-19T07:41:14;1016.4;;;15.6;46.4
54439;BME280;40347;53.848;27.498;2023-04-19T07:46:07;1016.4;;;15.8;44.5
54439;BME280;40347;53.848;27.498;2023-04-19T07:51:06;1016.4;;;15.9;44.2
54439;BME280;40347;53.848;27.498;2023-04-19T07:56:14;1016.4;;;16.1;43.8
54439;BME280;40347;53.848;27.498;2023-04-19T08:01:08;1016.4;;;16.2;43.2
54439;BME280;40347;53.848;27.498;2023-04-19T08:06:22;1016.4;;;16.1;43
54439;BME280;40347;53.848;27.498;2023-04-19T08:11:10;1016.4;;;15.9;42.6
54439;BME280;40347;53.848;27.498;2023-04-19T08:16:14;1016.4;;;15.8;43.3
54439;BME280;40347;53.848;27.498;2023-04-19T08:21:22;1016.4;;;15.7;43
54439;BME280;40347;53.848;27.498;2023-04-19T08:26:24;1016.4;;;16.1;43.1
54439;BME280;40347;53.848;27.498;2023-04-19T08:31:22;1016.4;;;16.5;41.8
54439;BME280;40347;53.848;27.498;2023-04-19T08:36:02;1016.3;;;16.8;40.9
54439;BME280;40347;53.848;27.498;2023-04-19T08:41:22;1016.3;;;16.9;39.9
54439;BME280;40347;53.848;27.498;2023-04-19T08:46:02;1016.3;;;17.2;39.5
54439;BME280;40347;53.848;27.498;2023-04-19T08:51:11;1016.3;;;17.4;37.6
54439;BME280;40347;53.848;27.498;2023-04-19T08:56:14;1016.3;;;17.4;37.6
54439;BME280;40347;53.848;27.498;2023-04-19T09:01:14;1016.3;;;17.5;36.9
54439;BME280;40347;53.848;27.498;2023-04-19T09:06:02;1016.2;;;17.6;35.9
54439;BME280;40347;53.848;27.498;2023-04-19T09:11:02;1016.2;;;17.6;33.8
54439;BME280;40347;53.848;27.498;2023-04-19T09:16:22;1016.3;;;17.5;33.5
54439;BME280;40347;53.848;27.498;2023-04-19T09:21:16;1016.3;;;17.3;33.3
54439;BME280;40347;53.848;27.498;2023-04-19T09:26:20;1016.3;;;17.3;33.4
54439;BME280;40347;53.848;27.498;2023-04-19T09:31:09;1016.3;;;17.4;34.1
54439;BME280;40347;53.848;27.498;2023-04-19T09:36:02;1016.3;;;17.3;32.6
54439;BME280;40347;53.848;27.498;2023-04-19T09:41:10;1016.2;;;17.3;33.1
54439;BME280;40347;53.848;27.498;2023-04-19T09:46:30;1016.3;;;17.4;33.7
54439;BME280;40347;53.848;27.498;2023-04-19T09:51:08;1016.2;;;17.5;33.4
54439;BME280;40347;53.848;27.498;2023-04-19T09:56:02;1016.2;;;17.4;32.5
54439;BME280;40347;53.848;27.498;2023-04-19T10:01:28;1016.2;;;17.4;33.2
54439;BME280;40347;53.848;27.498;2023-04-19T10:06:02;1016.2;;;17.5;32.9
54439;BME280;40347;53.848;27.498;2023-04-19T10:11:14;1016.2;;;17.5;32.5
54439;BME280;40347;53.848;27.498;2023-04-19T10:16:06;1016.2;;;17.4;33.5
54439;BME280;40347;53.848;27.498;2023-04-19T10:21:18;1016.3;;;17.4;32.7
54439;BME280;40347;53.848;27.498;2023-04-19T10:26:02;1016.2;;;17.4;33.2
54439;BME280;40347;53.848;27.498;2023-04-19T10:31:03;1016.2;;;17.4;32.6
54439;BME280;40347;53.848;27.498;2023-04-19T10:36:36;1016.2;;;17.3;31.6
54439;BME280;40347;53.848;27.498;2023-04-19T10:41:02;1016.3;;;17.2;31.7
54439;BME280;40347;53.848;27.498;2023-04-19T10:46:15;1016.3;;;17.2;32
54439;BME280;40347;53.848;27.498;2023-04-19T10:51:03;1016.3;;;17.3;32.9
54439;BME280;40347;53.848;27.498;2023-04-19T10:56:02;1016.3;;;17.3;32.8
54439;BME280;40347;53.848;27.498;2023-04-19T11:01:30;1016.3;;;17.3;31.9
54439;BME280;40347;53.848;27.498;2023-04-19T11:06:17;1016.3;;;17.3;30.9
54439;BME280;40347;53.848;27.498;2023-04-19T11:11:28;1016.3;;;17.4;31
54439;BME280;40347;53.848;27.498;2023-04-19T11:16:14;1016.3;;;17.4;31.6
54439;BME280;40347;53.848;27.498;2023-04-19T11:21:12;1016.3;;;17.5;29.4
54439;BME280;40347;53.848;27.498;2023-04-19T11:26:14;1016.3;;;17.5;29
54439;BME280;40347;53.848;27.498;2023-04-19T11:31:08;1016.3;;;17.6;29.1
54439;BME280;40347;53.848;27.498;2023-04-19T11:36:02;1016.2;;;17.6;29
54439;BME280;40347;53.848;27.498;2023-04-19T11:41:14;1016.1;;;17.7;29.6
54439;BME280;40347;53.848;27.498;2023-04-19T11:46:12;1016.2;;;17.9;30.4
54439;BME280;40347;53.848;27.498;2023-04-19T11:51:24;1016.2;;;18;29.7
54439;BME280;40347;53.848;27.498;2023-04-19T11:56:03;1016.2;;;18;27.4
54439;BME280;40347;53.848;27.498;2023-04-19T12:01:14;1016.2;;;17.9;27.5
54439;BME280;40347;53.848;27.498;2023-04-19T12:06:15;1016.2;;;18;28.1
54439;BME280;40347;53.848;27.498;2023-04-19T12:11:02;1016.1;;;18.1;29.1
54439;BME280;40347;53.848;27.498;2023-04-19T12:16:26;1016.1;;;18.2;28.6
54439;BME280;40347;53.848;27.498;2023-04-19T12:21:28;1016.1;;;18.2;28.1
54439;BME280;40347;53.848;27.498;2023-04-19T12:26:02;1016.1;;;18.2;28.1
54439;BME280;40347;53.848;27.498;2023-04-19T12:31:29;1016;;;18.1;27.4
54439;BME280;40347;53.848;27.498;2023-04-19T12:36:02;1016;;;17.9;26.8
54439;BME280;40347;53.848;27.498;2023-04-19T12:41:10;1016;;;17.9;27
54439;BME280;40347;53.848;27.498;2023-04-19T12:46:34;1016;;;18;27.7
54439;BME280;40347;53.848;27.498;2023-04-19T12:51:32;1015.9;;;18.1;27
54439;BME280;40347;53.848;27.498;2023-04-19T12:56:20;1015.9;;;18.2;28.3
54439;BME280;40347;53.848;27.498;2023-04-19T13:01:20;1015.9;;;18.3;27.7
54439;BME280;40347;53.848;27.498;2023-04-19T13:06:02;1015.9;;;18.5;27.8
54439;BME280;40347;53.848;27.498;2023-04-19T13:11:02;1016;;;18.6;27.9
54439;BME280;40347;53.848;27.498;2023-04-19T13:16:22;1016;;;18.6;28.5
54439;BME280;40347;53.848;27.498;2023-04-19T13:21:22;1016;;;18.7;28.7
54439;BME280;40347;53.848;27.498;2023-04-19T13:26:12;1016;;;18.9;28.3
54439;BME280;40347;53.848;27.498;2023-04-19T13:31:02;1016;;;18.9;28.8
54439;BME280;40347;53.848;27.498;2023-04-19T13:36:10;1015.9;;;19.2;28.5
54439;BME280;40347;53.848;27.498;2023-04-19T13:41:20;1016;;;19.5;28.7
54439;BME280;40347;53.848;27.498;2023-04-19T13:46:02;1016;;;19.7;28.6
54439;BME280;40347;53.848;27.498;2023-04-19T13:51:14;1016.1;;;19.6;28
54439;BME280;40347;53.848;27.498;2023-04-19T13:56:24;1016.1;;;19.5;28.7
54439;BME280;40347;53.848;27.498;2023-04-19T14:01:18;1016.1;;;19.5;28.5
54439;BME280;40347;53.848;27.498;2023-04-19T14:06:02;1016;;;19.6;28.5
54439;BME280;40347;53.848;27.498;2023-04-19T14:11:24;1016.1;;;19.3;28.4
54439;BME280;40347;53.848;27.498;2023-04-19T14:16:12;1016.2;;;19;29.1
54439;BME280;40347;53.848;27.498;2023-04-19T14:21:10;1016.2;;;18.9;28.8
54439;BME280;40347;53.848;27.498;2023-04-19T14:26:08;1016.1;;;18.8;28.8
54439;BME280;40347;53.848;27.498;2023-04-19T14:31:14;1016.2;;;18.8;29.4
54439;BME280;40347;53.848;27.498;2023-04-19T14:36:08;1016.2;;;18.7;29.2
54439;BME280;40347;53.848;27.498;2023-04-19T14:41:02;1016.2;;;18.8;29.4
54439;BME280;40347;53.848;27.498;2023-04-19T14:46:02;1016.2;;;19;29.8
54439;BME280;40347;53.848;27.498;2023-04-19T14:51:20;1016.2;;;19;29.6
54439;BME280;40347;53.848;27.498;2023-04-19T14:56:02;1016.4;;;18.8;29.8
54439;BME280;40347;53.848;27.498;2023-04-19T15:01:09;1016.3;;;18.5;30.3
54439;BME280;40347;53.848;27.498;2023-04-19T15:06:24;1016.2;;;18.3;30.8
54439;BME280;40347;53.848;27.498;2023-04-19T15:11:02;1016.3;;;18.2;31.1
54439;BME280;40347;53.848;27.498;2023-04-19T15:16:08;1016.3;;;18.3;31.2
54439;BME280;40347;53.848;27.498;2023-04-19T15:21:02;1016.3;;;18.2;31.2
54439;BME280;40347;53.848;27.498;2023-04-19T15:26:10;1016.3;;;18.1;31.1
54439;BME280;40347;53.848;27.498;2023-04-19T15:31:12;1016.3;;;18.1;31.7
54439;BME280;40347;53.848;27.498;2023-04-19T15:36:02;1016.3;;;18.1;31.8
54439;BME280;40347;53.848;27.498;2023-04-19T15:41:15;1016.4;;;17.8;31.1
54439;BME280;40347;53.848;27.498;2023-04-19T15:46:02;1016.3;;;17.5;31.6
54439;BME280;40347;53.848;27.498;2023-04-19T15:51:10;1016.4;;;17.5;31.7
54439;BME280;40347;53.848;27.498;2023-04-19T15:56:12;1016.4;;;17.5;31.7
54439;BME280;40347;53.848;27.498;2023-04-19T16:01:02;1016.4;;;17.3;31.8
54439;BME280;40347;53.848;27.498;2023-04-19T16:06:02;1016.4;;;17.2;31.9
54439;BME280;40347;53.848;27.498;2023-04-19T16:11:14;1016.4;;;17.2;32
54439;BME280;40347;53.848;27.498;2023-04-19T16:16:20;1016.4;;;17.1;32.3
54439;BME280;40347;53.848;27.498;2023-04-19T16:21:12;1016.5;;;17.2;32.1
54439;BME280;40347;53.848;27.498;2023-04-19T16:26:12;1016.5;;;17.1;32.2
54439;BME280;40347;53.848;27.498;2023-04-19T16:31:10;1016.5;;;17;32.3
54439;BME280;40347;53.848;27.498;2023-04-19T16:36:14;1016.6;;;17;32.3
54439;BME280;40347;53.848;27.498;2023-04-19T16:41:02;1016.7;;;16.9;32.2
54439;BME280;40347;53.848;27.498;2023-04-19T16:46:02;1016.7;;;16.7;32.1
54439;BME280;40347;53.848;27.498;2023-04-19T16:51:02;1016.7;;;16.7;32.5
54439;BME280;40347;53.848;27.498;2023-04-19T16:56:08;1016.7;;;16.6;32.6
54439;BME280;40347;53.848;27.498;2023-04-19T17:01:02;1016.7;;;16.4;32.9
54439;BME280;40347;53.848;27.498;2023-04-19T17:06:20;1016.8;;;16.2;33.1
54439;BME280;40347;53.848;27.498;2023-04-19T17:11:10;1016.8;;;16.1;33
54439;BME280;40347;53.848;27.498;2023-04-19T17:16:02;1016.9;;;16;33.3
54439;BME280;40347;53.848;27.498;2023-04-19T17:21:34;1016.9;;;16;33.4
54439;BME280;40347;53.848;27.498;2023-04-19T17:26:12;1017;;;16;33.5
54439;BME280;40347;53.848;27.498;2023-04-19T17:31:10;1017.1;;;15.9;33.9
54439;BME280;40347;53.848;27.498;2023-04-19T17:36:02;1017.2;;;15.9;33.9
54439;BME280;40347;53.848;27.498;2023-04-19T17:41:14;1017.2;;;15.8;34.1
54439;BME280;40347;53.848;27.498;2023-04-19T17:46:12;1017.3;;;15.8;34.3
54439;BME280;40347;53.848;27.498;2023-04-19T17:51:12;1017.4;;;15.8;34
54439;BME280;40347;53.848;27.498;2023-04-19T17:56:08;1017.4;;;15.8;33.9
54439;BME280;40347;53.848;27.498;2023-04-19T18:01:08;1017.4;;;15.8;34.1
54439;BME280;40347;53.848;27.498;2023-04-19T18:06:14;1017.4;;;15.7;34.2
54439;BME280;40347;53.848;27.498;2023-04-19T18:11:12;1017.5;;;15.8;34.1
54439;BME280;40347;53.848;27.498;2023-04-19T18:16:02;1017.5;;;15.7;34.2
54439;BME280;40347;53.848;27.498;2023-04-19T18:21:03;1017.5;;;15.8;34.1
54439;BME280;40347;53.848;27.498;2023-04-19T18:26:02;1017.6;;;15.7;34.1
54439;BME280;40347;53.848;27.498;2023-04-19T18:31:34;1017.6;;;15.7;34.2
54439;BME280;40347;53.848;27.498;2023-04-19T18:36:02;1017.6;;;15.7;34.3
54439;BME280;40347;53.848;27.498;2023-04-19T18:41:24;1017.6;;;15.7;34.6
54439;BME280;40347;53.848;27.498;2023-04-19T18:46:02;1017.6;;;15.6;34.4
54439;BME280;40347;53.848;27.498;2023-04-19T18:51:02;1017.6;;;15.6;34.4
54439;BME280;40347;53.848;27.498;2023-04-19T18:56:12;1017.6;;;15.5;34.4
54439;BME280;40347;53.848;27.498;2023-04-19T19:01:18;1017.6;;;15.4;34.4
54439;BME280;40347;53.848;27.498;2023-04-19T19:06:02;1017.7;;;15.3;34.5
54439;BME280;40347;53.848;27.498;2023-04-19T19:11:08;1017.7;;;15.2;34.6
54439;BME280;40347;53.848;27.498;2023-04-19T19:16:10;1017.7;;;15.1;34.8
54439;BME280;40347;53.848;27.498;2023-04-19T19:21:14;1017.7;;;15.1;34.5
54439;BME280;40347;53.848;27.498;2023-04-19T19:26:12;1017.7;;;14.9;35
54439;BME280;40347;53.848;27.498;2023-04-19T19:31:16;1017.7;;;14.7;35
54439;BME280;40347;53.848;27.498;2023-04-19T19:36:03;1017.7;;;14.7;35.1
54439;BME280;40347;53.848;27.498;2023-04-19T19:41:12;1017.7;;;14.6;35.1
54439;BME280;40347;53.848;27.498;2023-04-19T19:46:02;1017.7;;;14.6;35.3
54439;BME280;40347;53.848;27.498;2023-04-19T19:51:20;1017.7;;;14.5;35.3
54439;BME280;40347;53.848;27.498;2023-04-19T19:56:02;1017.7;;;14.5;35.5
54439;BME280;40347;53.848;27.498;2023-04-19T20:01:22;1017.7;;;14.6;35.3
54439;BME280;40347;53.848;27.498;2023-04-19T20:06:10;1017.7;;;14.6;35.5
54439;BME280;40347;53.848;27.498;2023-04-19T20:11:02;1017.8;;;14.6;35.5
54439;BME280;40347;53.848;27.498;2023-04-19T20:16:12;1017.8;;;14.5;35.2
54439;BME280;40347;53.848;27.498;2023-04-19T20:21:02;1017.8;;;14.4;35.6
54439;BME280;40347;53.848;27.498;2023-04-19T20:26:02;1017.9;;;14.4;35.4
54439;BME280;40347;53.848;27.498;2023-04-19T20:31:02;1017.9;;;14.3;35.6
54439;BME280;40347;53.848;27.498;2023-04-19T20:36:02;1017.9;;;14.3;35.6
54439;BME280;40347;53.848;27.498;2023-04-19T20:41:12;1017.9;;;14.2;35.5
54439;BME280;40347;53.848;27.498;2023-04-19T20:46:12;1017.9;;;14.1;35.6
54439;BME280;40347;53.848;27.498;2023-04-19T20:51:02;1017.9;;;14;35.6
54439;BME280;40347;53.848;27.498;2023-04-19T20:56:32;1017.9;;;13.8;35.5
54439;BME280;40347;53.848;27.498;2023-04-19T21:01:26;1017.9;;;13.8;35.6
54439;BME280;40347;53.848;27.498;2023-04-19T21:06:18;1018;;;13.8;35.8
54439;BME280;40347;53.848;27.498;2023-04-19T21:11:02;1018;;;13.7;35.7
54439;BME280;40347;53.848;27.498;2023-04-19T21:16:02;1018;;;13.7;36
54439;BME280;40347;53.848;27.498;2023-04-19T21:21:14;1018;;;13.6;36.1
54439;BME280;40347;53.848;27.498;2023-04-19T21:26:14;1018;;;13.6;36.3
54439;BME280;40347;53.848;27.498;2023-04-19T21:31:10;1018;;;13.4;36.6
54439;BME280;40347;53.848;27.498;2023-04-19T21:36:22;1018;;;13.4;36.9
54439;BME280;40347;53.848;27.498;2023-04-19T21:41:02;1018;;;13.3;37.2
54439;BME280;40347;53.848;27.498;2023-04-19T21:46:02;1018.1;;;13.1;37.9
54439;BME280;40347;53.848;27.498;2023-04-19T21:51:14;1018.1;;;12.9;38.6
54439;BME280;40347;53.848;27.498;2023-04-19T21:56:12;1018.1;;;12.8;39.3
54439;BME280;40347;53.848;27.498;2023-04-19T22:01:22;1018.1;;;12.7;39.6
54439;BME280;40347;53.848;27.498;2023-04-19T22:06:34;1018.1;;;12.5;40.2
54439;BME280;40347;53.848;27.498;2023-04-19T22:11:02;1018.1;;;12.5;40.2
54439;BME280;40347;53.848;27.498;2023-04-19T22:16:26;1018.2;;;12.5;40.6
54439;BME280;40347;53.848;27.498;2023-04-19T22:21:12;1018.2;;;12.3;40.8
54439;BME280;40347;53.848;27.498;2023-04-19T22:26:14;1018.2;;;12.3;40.8
54439;BME280;40347;53.848;27.498;2023-04-19T22:31:02;1018.2;;;12.2;41.4
54439;BME280;40347;53.848;27.498;2023-04-19T22:36:22;1018.2;;;12.1;41.6
54439;BME280;40347;53.848;27.498;2023-04-19T22:41:14;1018.2;;;12.1;41.6
54439;BME280;40347;53.848;27.498;2023-04-19T22:46:02;1018.2;;;12.1;41.7
54439;BME280;40347;53.848;27.498;2023-04-19T22:51:14;1018.2;;;12;41.6
54439;BME280;40347;53.848;27.498;2023-04-19T22:56:08;1018.2;;;12;41.7
54439;BME280;40347;53.848;27.498;2023-04-19T23:01:14;1018.2;;;12;41.6
54439;BME280;40347;53.848;27.498;2023-04-19T23:06:14;1018.2;;;11.9;41.9
54439;BME280;40347;53.848;27.498;2023-04-19T23:11:02;1018.2;;;11.8;42.2
54439;BME280;40347;53.848;27.498;2023-04-19T23:16:14;1018.2;;;11.8;42.3
54439;BME280;40347;53.848;27.498;2023-04-19T23:21:02;1018.2;;;11.7;42.4
54439;BME280;40347;53.848;27.498;2023-04-19T23:26:24;1018.2;;;11.7;42.5
54439;BME280;40347;53.848;27.498;2023-04-19T23:31:14;1018.2;;;11.6;42.8
54439;BME280;40347;53.848;27.498;2023-04-19T23:36:20;1018.2;;;11.5;43.1
54439;BME280;40347;53.848;27.498;2023-04-19T23:41:24;1018.3;;;11.4;43.5
54439;BME280;40347;53.848;27.498;2023-04-19T23:46:08;1018.3;;;11.4;43.4
54439;BME280;40347;53.848;27.498;2023-04-19T23:51:14;1018.2;;;11.4;43.4
54439;BME280;40347;53.848;27.498;2023-04-19T23:56:14;1018.2;;;11.2;43.9
